sensor_id;sensor_type;location;lat;lon;timestamp;pressure;altitude;pressure_sealevel;temperature;humidity
18678;BME280;9469;51.114;13.914;2023-02-28T00:03:30;100100.34;;;0.15;100.00
18678;BME280;9469;51.114;13.914;2023-02-28T00:08:37;100107.59;;;0.13;100.00
18678;BME280;9469;51.114;13.914;2023-02-28T00:13:46;100096.09;;;0.08;100.00
18678;BME280;9469;51.114;13.914;2023-02-28T00:18:51;100104.91;;;-0.07;100.00
18678;BME280;9469;51.114;13.914;2023-02-28T00:23:57;100102.19;;;-0.46;100.00
18678;BME280;9469;51.114;13.914;2023-02-28T00:29:05;100089.75;;;-0.31;100.00
18678;BME280;9469;51.114;13.914;2023-02-28T00:34:11;100093.81;;;-0.22;100.00
18678;BME280;9469;51.114;13.914;2023-02-28T00:39:16;100089.75;;;-0.31;100.00
18678;BME280;9469;51.114;13.914;2023-02-28T00:44:23;100096.00;;;-0.32;100.00
18678;BME280;9469;51.114;13.914;2023-02-28T00:49:28;100093.00;;;-0.22;100.00
18678;BME280;9469;51.114;13.914;2023-02-28T00:54:33;100091.03;;;-0.14;100.00
18678;BME280;9469;51.114;13.914;2023-02-28T00:59:44;100087.38;;;-0.19;100.00
18678;BME280;9469;51.114;13.914;2023-02-28T01:04:49;100089.78;;;-0.24;100.00
18678;BME280;9469;51.114;13.914;2023-02-28T01:09:54;100089.22;;;-0.13;100.00
18678;BME280;9469;51.114;13.914;2023-02-28T01:15:03;100086.16;;;-0.30;100.00
18678;BME280;9469;51.114;13.914;2023-02-28T01:20:10;100089.78;;;-0.24;100.00
18678;BME280;9469;51.114;13.914;2023-02-28T01:25:15;100083.34;;;-0.28;100.00
18678;BME280;9469;51.114;13.914;2023-02-28T01:30:26;100082.09;;;-0.45;100.00
18678;BME280;9469;51.114;13.914;2023-02-28T01:35:32;100088.09;;;-0.45;100.00
18678;BME280;9469;51.114;13.914;2023-02-28T01:40:37;100087.22;;;-0.58;100.00
18678;BME280;9469;51.114;13.914;2023-02-28T01:45:44;100081.59;;;-0.62;100.00
18678;BME280;9469;51.114;13.914;2023-02-28T01:50:49;100086.56;;;-0.74;100.00
18678;BME280;9469;51.114;13.914;2023-02-28T01:55:55;100076.66;;;-0.44;100.00
18678;BME280;9469;51.114;13.914;2023-02-28T02:01:03;100068.75;;;-0.57;100.00
18678;BME280;9469;51.114;13.914;2023-02-28T02:06:08;100080.50;;;-0.81;100.00
18678;BME280;9469;51.114;13.914;2023-02-28T02:11:13;100079.94;;;-0.69;100.00
18678;BME280;9469;51.114;13.914;2023-02-28T02:16:41;100071.50;;;-0.72;100.00
18678;BME280;9469;51.114;13.914;2023-02-28T02:22:05;100074.06;;;-0.85;100.00
18678;BME280;9469;51.114;13.914;2023-02-28T02:27:39;100065.44;;;-0.79;100.00
18678;BME280;9469;51.114;13.914;2023-02-28T02:33:13;100067.72;;;-1.03;100.00
18678;BME280;9469;51.114;13.914;2023-02-28T02:38:31;100068.63;;;-1.17;100.00
18678;BME280;9469;51.114;13.914;2023-02-28T02:43:41;100074.41;;;-1.22;100.00
18678;BME280;9469;51.114;13.914;2023-02-28T02:48:50;100067.78;;;-1.24;100.00
18678;BME280;9469;51.114;13.914;2023-02-28T02:54:03;100072.50;;;-1.41;100.00
18678;BME280;9469;51.114;13.914;2023-02-28T02:59:12;100073.88;;;-1.66;100.00
18678;BME280;9469;51.114;13.914;2023-02-28T03:04:25;100080.09;;;-1.67;100.00
18678;BME280;9469;51.114;13.914;2023-02-28T03:09:35;100075.06;;;-1.69;100.00
18678;BME280;9469;51.114;13.914;2023-02-28T03:14:50;100084.47;;;-1.74;100.00
18678;BME280;9469;51.114;13.914;2023-02-28T03:20:06;100078.38;;;-1.81;100.00
18678;BME280;9469;51.114;13.914;2023-02-28T03:25:19;100079.25;;;-1.95;100.00
18678;BME280;9469;51.114;13.914;2023-02-28T03:30:29;100078.50;;;-2.10;100.00
18678;BME280;9469;51.114;13.914;2023-02-28T03:35:41;100072.56;;;-2.19;100.00
18678;BME280;9469;51.114;13.914;2023-02-28T03:40:56;100079.78;;;-2.21;100.00
18678;BME280;9469;51.114;13.914;2023-02-28T03:46:05;100074.13;;;-2.25;100.00
18678;BME280;9469;51.114;13.914;2023-02-28T03:51:16;100084.09;;;-2.28;100.00
18678;BME280;9469;51.114;13.914;2023-02-28T03:56:29;100086.84;;;-2.36;100.00
18678;BME280;9469;51.114;13.914;2023-02-28T04:01:37;100086.91;;;-2.30;100.00
18678;BME280;9469;51.114;13.914;2023-02-28T04:06:44;100090.72;;;-2.47;100.00
18678;BME280;9469;51.114;13.914;2023-02-28T04:11:54;100093.16;;;-2.60;100.00
18678;BME280;9469;51.114;13.914;2023-02-28T04:17:00;100092.78;;;-2.57;100.00
18678;BME280;9469;51.114;13.914;2023-02-28T04:22:05;100093.59;;;-2.56;100.00
18678;BME280;9469;51.114;13.914;2023-02-28T04:27:13;100101.88;;;-2.67;100.00
18678;BME280;9469;51.114;13.914;2023-02-28T04:32:18;100111.06;;;-2.71;100.00
18678;BME280;9469;51.114;13.914;2023-02-28T04:37:23;100118.69;;;-2.70;100.00
18678;BME280;9469;51.114;13.914;2023-02-28T04:42:35;100112.22;;;-2.74;100.00
18678;BME280;9469;51.114;13.914;2023-02-28T04:47:43;100112.03;;;-2.87;100.00
18678;BME280;9469;51.114;13.914;2023-02-28T04:52:48;100116.59;;;-2.89;100.00
18678;BME280;9469;51.114;13.914;2023-02-28T04:57:56;100114.16;;;-3.05;100.00
18678;BME280;9469;51.114;13.914;2023-02-28T05:03:01;100111.75;;;-3.07;100.00
18678;BME280;9469;51.114;13.914;2023-02-28T05:08:08;100106.88;;;-3.10;100.00
18678;BME280;9469;51.114;13.914;2023-02-28T05:13:24;100114.53;;;-3.08;100.00
18678;BME280;9469;51.114;13.914;2023-02-28T05:18:29;100119.28;;;-3.26;100.00
18678;BME280;9469;51.114;13.914;2023-02-28T05:23:34;100119.91;;;-3.24;100.00
18678;BME280;9469;51.114;13.914;2023-02-28T05:28:42;100128.91;;;-3.49;100.00
18678;BME280;9469;51.114;13.914;2023-02-28T05:33:47;100129.66;;;-3.64;100.00
18678;BME280;9469;51.114;13.914;2023-02-28T05:38:55;100133.66;;;-3.53;100.00
18678;BME280;9469;51.114;13.914;2023-02-28T05:44:03;100129.25;;;-3.52;100.00
18678;BME280;9469;51.114;13.914;2023-02-28T05:49:08;100123.69;;;-3.49;100.00
18678;BME280;9469;51.114;13.914;2023-02-28T05:54:16;100129.09;;;-3.51;100.00
18678;BME280;9469;51.114;13.914;2023-02-28T05:59:27;100134.19;;;-3.57;100.00
18678;BME280;9469;51.114;13.914;2023-02-28T06:04:32;100143.16;;;-3.45;100.00
18678;BME280;9469;51.114;13.914;2023-02-28T06:09:37;100135.84;;;-3.27;100.00
18678;BME280;9469;51.114;13.914;2023-02-28T06:14:45;100150.41;;;-3.18;100.00
18678;BME280;9469;51.114;13.914;2023-02-28T06:19:50;100154.16;;;-3.35;100.00
18678;BME280;9469;51.114;13.914;2023-02-28T06:24:59;100157.91;;;-3.38;100.00
18678;BME280;9469;51.114;13.914;2023-02-28T06:30:08;100164.28;;;-3.03;100.00
18678;BME280;9469;51.114;13.914;2023-02-28T06:35:14;100170.56;;;-3.12;100.00
18678;BME280;9469;51.114;13.914;2023-02-28T06:40:19;100186.16;;;-3.12;100.00
18678;BME280;9469;51.114;13.914;2023-02-28T06:45:30;100181.91;;;-2.76;100.00
18678;BME280;9469;51.114;13.914;2023-02-28T06:50:35;100193.31;;;-2.77;100.00
18678;BME280;9469;51.114;13.914;2023-02-28T06:55:41;100200.34;;;-2.34;100.00
18678;BME280;9469;51.114;13.914;2023-02-28T07:00:50;100203.56;;;-2.32;100.00
18678;BME280;9469;51.114;13.914;2023-02-28T07:05:58;100200.72;;;-2.01;100.00
18678;BME280;9469;51.114;13.914;2023-02-28T07:11:04;100201.47;;;-1.92;100.00
18678;BME280;9469;51.114;13.914;2023-02-28T07:16:17;100202.25;;;-1.56;100.00
18678;BME280;9469;51.114;13.914;2023-02-28T07:21:24;100208.31;;;-1.70;100.00
18678;BME280;9469;51.114;13.914;2023-02-28T07:26:30;100205.88;;;-1.72;100.00
18678;BME280;9469;51.114;13.914;2023-02-28T07:31:39;100201.97;;;-1.40;100.00
18678;BME280;9469;51.114;13.914;2023-02-28T07:36:45;100204.81;;;-1.20;100.00
18678;BME280;9469;51.114;13.914;2023-02-28T07:41:55;100213.41;;;-1.20;100.00
18678;BME280;9469;51.114;13.914;2023-02-28T07:47:04;100213.66;;;-1.15;100.00
18678;BME280;9469;51.114;13.914;2023-02-28T07:52:11;100212.63;;;-0.93;100.00
18678;BME280;9469;51.114;13.914;2023-02-28T07:57:17;100215.66;;;-0.68;100.00
18678;BME280;9469;51.114;13.914;2023-02-28T08:02:26;100217.31;;;-0.60;100.00
18678;BME280;9469;51.114;13.914;2023-02-28T08:07:31;100220.94;;;-0.27;100.00
18678;BME280;9469;51.114;13.914;2023-02-28T08:12:36;100222.44;;;-0.12;100.00
18678;BME280;9469;51.114;13.914;2023-02-28T08:17:43;100209.41;;;0.08;100.00
18678;BME280;9469;51.114;13.914;2023-02-28T08:22:48;100217.53;;;0.20;100.00
18678;BME280;9469;51.114;13.914;2023-02-28T08:27:53;100224.56;;;0.19;100.00
18678;BME280;9469;51.114;13.914;2023-02-28T08:33:01;100220.38;;;0.31;99.47
18678;BME280;9469;51.114;13.914;2023-02-28T08:38:06;100217.53;;;0.26;98.13
18678;BME280;9469;51.114;13.914;2023-02-28T08:43:11;100217.81;;;0.70;96.97
18678;BME280;9469;51.114;13.914;2023-02-28T08:48:19;100213.63;;;1.09;94.28
18678;BME280;9469;51.114;13.914;2023-02-28T08:53:24;100233.81;;;1.02;89.12
18678;BME280;9469;51.114;13.914;2023-02-28T08:58:29;100227.34;;;1.11;87.67
18678;BME280;9469;51.114;13.914;2023-02-28T09:03:37;100227.50;;;1.55;87.15
18678;BME280;9469;51.114;13.914;2023-02-28T09:08:43;100231.09;;;1.80;85.83
18678;BME280;9469;51.114;13.914;2023-02-28T09:13:48;100221.81;;;1.71;85.53
18678;BME280;9469;51.114;13.914;2023-02-28T09:18:56;100224.41;;;1.84;84.60
18678;BME280;9469;51.114;13.914;2023-02-28T09:24:03;100223.91;;;2.07;85.39
18678;BME280;9469;51.114;13.914;2023-02-28T09:29:08;100217.03;;;2.06;86.01
18678;BME280;9469;51.114;13.914;2023-02-28T09:34:16;100228.78;;;1.97;84.20
18678;BME280;9469;51.114;13.914;2023-02-28T09:39:22;100212.25;;;3.28;81.20
18678;BME280;9469;51.114;13.914;2023-02-28T09:44:31;100202.97;;;4.16;77.17
18678;BME280;9469;51.114;13.914;2023-02-28T09:49:41;100204.00;;;3.97;73.79
18678;BME280;9469;51.114;13.914;2023-02-28T09:54:48;100200.50;;;3.67;72.96
18678;BME280;9469;51.114;13.914;2023-02-28T10:00:04;100215.78;;;4.72;71.36
18678;BME280;9469;51.114;13.914;2023-02-28T10:05:19;100218.03;;;4.27;70.52
18678;BME280;9469;51.114;13.914;2023-02-28T10:10:28;100218.31;;;2.72;72.98
18678;BME280;9469;51.114;13.914;2023-02-28T10:15:35;100215.91;;;2.71;75.07
18678;BME280;9469;51.114;13.914;2023-02-28T10:20:45;100219.88;;;2.04;76.73
18678;BME280;9469;51.114;13.914;2023-02-28T10:25:55;100225.91;;;2.11;76.34
18678;BME280;9469;51.114;13.914;2023-02-28T10:31:02;100220.84;;;2.16;76.44
18678;BME280;9469;51.114;13.914;2023-02-28T10:36:14;100220.53;;;2.38;77.06
18678;BME280;9469;51.114;13.914;2023-02-28T10:41:28;100214.09;;;1.89;76.13
18678;BME280;9469;51.114;13.914;2023-02-28T10:46:40;100216.91;;;2.39;76.76
18678;BME280;9469;51.114;13.914;2023-02-28T10:51:50;100219.44;;;2.14;76.04
18678;BME280;9469;51.114;13.914;2023-02-28T10:57:09;100209.38;;;2.49;76.17
18678;BME280;9469;51.114;13.914;2023-02-28T11:02:37;100207.75;;;2.48;74.33
18678;BME280;9469;51.114;13.914;2023-02-28T11:07:55;100200.56;;;3.17;73.11
18678;BME280;9469;51.114;13.914;2023-02-28T11:13:03;100191.28;;;3.57;70.67
18678;BME280;9469;51.114;13.914;2023-02-28T11:18:20;100185.75;;;3.84;70.61
18678;BME280;9469;51.114;13.914;2023-02-28T11:23:34;100174.19;;;3.67;69.68
18678;BME280;9469;51.114;13.914;2023-02-28T11:28:42;100176.63;;;3.07;69.25
18678;BME280;9469;51.114;13.914;2023-02-28T11:33:48;100167.03;;;3.55;68.95
18678;BME280;9469;51.114;13.914;2023-02-28T11:38:59;100165.13;;;3.81;70.29
18678;BME280;9469;51.114;13.914;2023-02-28T11:44:18;100157.53;;;3.36;69.01
18678;BME280;9469;51.114;13.914;2023-02-28T11:49:32;100158.09;;;4.52;67.71
18678;BME280;9469;51.114;13.914;2023-02-28T11:55:00;100164.06;;;4.18;66.97
18678;BME280;9469;51.114;13.914;2023-02-28T12:00:25;100157.03;;;4.42;66.49
18678;BME280;9469;51.114;13.914;2023-02-28T12:05:38;100155.44;;;4.11;66.28
18678;BME280;9469;51.114;13.914;2023-02-28T12:11:00;100154.03;;;4.91;65.45
18678;BME280;9469;51.114;13.914;2023-02-28T12:22:18;100152.31;;;4.85;64.40
18678;BME280;9469;51.114;13.914;2023-02-28T12:27:32;100157.78;;;4.72;65.46
18678;BME280;9469;51.114;13.914;2023-02-28T12:32:40;100157.97;;;4.47;65.84
18678;BME280;9469;51.114;13.914;2023-02-28T12:37:55;100157.44;;;4.68;65.22
18678;BME280;9469;51.114;13.914;2023-02-28T12:43:07;100148.75;;;5.02;65.38
18678;BME280;9469;51.114;13.914;2023-02-28T12:48:15;100150.59;;;5.14;64.63
18678;BME280;9469;51.114;13.914;2023-02-28T12:53:28;100148.28;;;4.00;65.22
18678;BME280;9469;51.114;13.914;2023-02-28T12:58:42;100145.09;;;4.39;65.30
18678;BME280;9469;51.114;13.914;2023-02-28T13:04:04;100143.56;;;4.73;66.21
18678;BME280;9469;51.114;13.914;2023-02-28T13:09:13;100139.81;;;4.80;65.70
18678;BME280;9469;51.114;13.914;2023-02-28T13:14:26;100127.19;;;4.18;65.95
18678;BME280;9469;51.114;13.914;2023-02-28T13:19:34;100134.00;;;4.37;65.14
18678;BME280;9469;51.114;13.914;2023-02-28T13:24:50;100138.31;;;4.61;65.00
18678;BME280;9469;51.114;13.914;2023-02-28T13:29:59;100127.97;;;5.41;64.87
18678;BME280;9469;51.114;13.914;2023-02-28T13:35:35;100135.94;;;4.42;65.76
18678;BME280;9469;51.114;13.914;2023-02-28T13:40:43;100119.31;;;4.41;65.40
18678;BME280;9469;51.114;13.914;2023-02-28T13:46:11;100124.53;;;4.59;66.85
18678;BME280;9469;51.114;13.914;2023-02-28T13:51:44;100109.88;;;4.52;65.36
18678;BME280;9469;51.114;13.914;2023-02-28T13:56:56;100118.78;;;4.51;66.65
18678;BME280;9469;51.114;13.914;2023-02-28T14:02:34;100104.38;;;4.76;67.08
18678;BME280;9469;51.114;13.914;2023-02-28T14:07:46;100099.00;;;4.71;66.69
18678;BME280;9469;51.114;13.914;2023-02-28T14:13:10;100082.13;;;5.07;66.49
18678;BME280;9469;51.114;13.914;2023-02-28T14:18:21;100083.53;;;4.75;66.98
18678;BME280;9469;51.114;13.914;2023-02-28T14:29:26;100074.69;;;3.75;68.34
18678;BME280;9469;51.114;13.914;2023-02-28T14:34:44;100072.50;;;4.02;70.12
18678;BME280;9469;51.114;13.914;2023-02-28T14:39:51;100083.72;;;3.97;69.78
18678;BME280;9469;51.114;13.914;2023-02-28T14:44:57;100070.84;;;3.59;69.51
18678;BME280;9469;51.114;13.914;2023-02-28T14:50:05;100069.97;;;3.66;70.70
18678;BME280;9469;51.114;13.914;2023-02-28T14:55:17;100070.88;;;4.01;70.44
18678;BME280;9469;51.114;13.914;2023-02-28T15:00:28;100072.31;;;3.37;71.96
18678;BME280;9469;51.114;13.914;2023-02-28T15:05:39;100076.31;;;3.58;72.64
18678;BME280;9469;51.114;13.914;2023-02-28T15:10:51;100086.50;;;3.54;72.12
18678;BME280;9469;51.114;13.914;2023-02-28T15:16:00;100089.22;;;3.30;72.98
18678;BME280;9469;51.114;13.914;2023-02-28T15:21:32;100085.56;;;3.79;72.94
18678;BME280;9469;51.114;13.914;2023-02-28T15:26:40;100080.44;;;3.54;73.62
18678;BME280;9469;51.114;13.914;2023-02-28T15:31:49;100079.69;;;3.29;73.79
18678;BME280;9469;51.114;13.914;2023-02-28T15:37:06;100075.31;;;3.05;73.91
18678;BME280;9469;51.114;13.914;2023-02-28T15:42:31;100077.72;;;3.24;75.43
18678;BME280;9469;51.114;13.914;2023-02-28T15:47:36;100076.34;;;3.40;74.49
18678;BME280;9469;51.114;13.914;2023-02-28T15:52:45;100072.88;;;3.03;74.10
18678;BME280;9469;51.114;13.914;2023-02-28T15:57:53;100071.72;;;2.99;74.22
18678;BME280;9469;51.114;13.914;2023-02-28T16:03:00;100070.72;;;3.18;73.97
18678;BME280;9469;51.114;13.914;2023-02-28T16:08:14;100074.25;;;2.87;74.50
18678;BME280;9469;51.114;13.914;2023-02-28T16:13:20;100070.00;;;3.11;74.38
18678;BME280;9469;51.114;13.914;2023-02-28T16:18:27;100067.91;;;2.95;74.87
18678;BME280;9469;51.114;13.914;2023-02-28T16:23:37;100074.88;;;3.08;75.87
18678;BME280;9469;51.114;13.914;2023-02-28T16:28:45;100081.97;;;3.25;74.82
18678;BME280;9469;51.114;13.914;2023-02-28T16:33:51;100079.94;;;3.27;75.01
18678;BME280;9469;51.114;13.914;2023-02-28T16:39:01;100078.31;;;3.26;75.80
18678;BME280;9469;51.114;13.914;2023-02-28T16:44:11;100079.63;;;3.35;77.86
18678;BME280;9469;51.114;13.914;2023-02-28T16:49:19;100075.81;;;3.13;78.43
18678;BME280;9469;51.114;13.914;2023-02-28T16:54:27;100074.22;;;3.30;79.43
18678;BME280;9469;51.114;13.914;2023-02-28T16:59:32;100073.78;;;3.33;80.04
18678;BME280;9469;51.114;13.914;2023-02-28T17:04:38;100081.63;;;2.79;81.94
18678;BME280;9469;51.114;13.914;2023-02-28T17:09:46;100079.56;;;2.81;83.15
18678;BME280;9469;51.114;13.914;2023-02-28T17:14:51;100085.28;;;2.78;84.04
18678;BME280;9469;51.114;13.914;2023-02-28T17:19:57;100084.78;;;2.63;86.11
18678;BME280;9469;51.114;13.914;2023-02-28T17:25:10;100101.00;;;2.29;89.21
18678;BME280;9469;51.114;13.914;2023-02-28T17:30:17;100098.22;;;2.24;90.67
18678;BME280;9469;51.114;13.914;2023-02-28T17:35:23;100092.34;;;2.28;89.98
18678;BME280;9469;51.114;13.914;2023-02-28T17:40:31;100099.03;;;2.24;90.90
18678;BME280;9469;51.114;13.914;2023-02-28T17:45:38;100092.50;;;2.33;91.13
18678;BME280;9469;51.114;13.914;2023-02-28T17:50:43;100096.41;;;1.86;93.29
18678;BME280;9469;51.114;13.914;2023-02-28T17:55:50;100090.53;;;1.53;95.18
18678;BME280;9469;51.114;13.914;2023-02-28T18:00:55;100081.84;;;1.53;95.49
18678;BME280;9469;51.114;13.914;2023-02-28T18:06:02;100076.09;;;1.75;95.93
18678;BME280;9469;51.114;13.914;2023-02-28T18:11:10;100081.94;;;1.33;96.42
18678;BME280;9469;51.114;13.914;2023-02-28T18:16:23;100082.19;;;1.12;98.83
18678;BME280;9469;51.114;13.914;2023-02-28T18:21:28;100086.28;;;0.88;100.00
18678;BME280;9469;51.114;13.914;2023-02-28T18:26:37;100082.81;;;1.01;100.00
18678;BME280;9469;51.114;13.914;2023-02-28T18:31:45;100082.41;;;1.10;98.24
18678;BME280;9469;51.114;13.914;2023-02-28T18:36:51;100077.63;;;1.45;97.65
18678;BME280;9469;51.114;13.914;2023-02-28T18:41:59;100084.97;;;1.23;98.12
18678;BME280;9469;51.114;13.914;2023-02-28T18:47:07;100090.28;;;1.04;99.60
18678;BME280;9469;51.114;13.914;2023-02-28T18:52:13;100092.91;;;0.78;100.00
18678;BME280;9469;51.114;13.914;2023-02-28T18:57:20;100089.91;;;0.67;100.00
18678;BME280;9469;51.114;13.914;2023-02-28T19:02:26;100095.72;;;0.30;100.00
18678;BME280;9469;51.114;13.914;2023-02-28T19:07:34;100092.50;;;0.28;100.00
18678;BME280;9469;51.114;13.914;2023-02-28T19:12:42;100091.91;;;0.13;100.00
18678;BME280;9469;51.114;13.914;2023-02-28T19:17:48;100103.94;;;0.01;100.00
18678;BME280;9469;51.114;13.914;2023-02-28T19:22:53;100096.91;;;0.08;100.00
18678;BME280;9469;51.114;13.914;2023-02-28T19:28:05;100094.69;;;0.05;100.00
18678;BME280;9469;51.114;13.914;2023-02-28T19:33:11;100093.84;;;-0.02;100.00
18678;BME280;9469;51.114;13.914;2023-02-28T19:38:17;100097.50;;;0.04;100.00
18678;BME280;9469;51.114;13.914;2023-02-28T19:43:25;100098.09;;;-0.08;100.00
18678;BME280;9469;51.114;13.914;2023-02-28T19:48:30;100100.25;;;-0.24;100.00
18678;BME280;9469;51.114;13.914;2023-02-28T19:53:39;100101.03;;;-0.30;100.00
18678;BME280;9469;51.114;13.914;2023-02-28T19:58:49;100103.16;;;-0.47;100.00
18678;BME280;9469;51.114;13.914;2023-02-28T20:03:54;100109.97;;;-0.59;100.00
18678;BME280;9469;51.114;13.914;2023-02-28T20:08:59;100108.22;;;-0.45;100.00
18678;BME280;9469;51.114;13.914;2023-02-28T20:14:07;100109.31;;;-0.67;100.00
18678;BME280;9469;51.114;13.914;2023-02-28T20:19:14;100102.53;;;-0.55;100.00
18678;BME280;9469;51.114;13.914;2023-02-28T20:24:20;100101.69;;;-0.62;100.00
18678;BME280;9469;51.114;13.914;2023-02-28T20:29:29;100105.16;;;-0.55;100.00
18678;BME280;9469;51.114;13.914;2023-02-28T20:34:34;100101.03;;;-0.78;100.00
18678;BME280;9469;51.114;13.914;2023-02-28T20:39:40;100103.16;;;-0.88;100.00
18678;BME280;9469;51.114;13.914;2023-02-28T20:44:48;100113.94;;;-0.97;100.00
18678;BME280;9469;51.114;13.914;2023-02-28T20:49:53;100107.56;;;-1.22;100.00
18678;BME280;9469;51.114;13.914;2023-02-28T20:54:58;100113.13;;;-1.04;100.00
18678;BME280;9469;51.114;13.914;2023-02-28T21:00:07;100114.94;;;-1.05;100.00
18678;BME280;9469;51.114;13.914;2023-02-28T21:05:17;100113.34;;;-0.99;100.00
18678;BME280;9469;51.114;13.914;2023-02-28T21:10:21;100118.56;;;-0.99;100.00
18678;BME280;9469;51.114;13.914;2023-02-28T21:15:29;100117.44;;;-1.18;100.00
18678;BME280;9469;51.114;13.914;2023-02-28T21:20:34;100104.06;;;-1.02;100.00
18678;BME280;9469;51.114;13.914;2023-02-28T21:25:40;100104.63;;;-1.40;100.00
18678;BME280;9469;51.114;13.914;2023-02-28T21:30:47;100101.91;;;-1.26;100.00
18678;BME280;9469;51.114;13.914;2023-02-28T21:36:01;100104.28;;;-1.31;100.00
18678;BME280;9469;51.114;13.914;2023-02-28T21:41:08;100107.75;;;-1.24;100.00
18678;BME280;9469;51.114;13.914;2023-02-28T21:46:17;100104.19;;;-1.44;100.00
18678;BME280;9469;51.114;13.914;2023-02-28T21:51:24;100112.78;;;-1.50;100.00
18678;BME280;9469;51.114;13.914;2023-02-28T21:56:33;100114.81;;;-1.46;100.00
18678;BME280;9469;51.114;13.914;2023-02-28T22:01:44;100108.84;;;-1.39;100.00
18678;BME280;9469;51.114;13.914;2023-02-28T22:06:51;100107.22;;;-1.40;100.00
18678;BME280;9469;51.114;13.914;2023-02-28T22:11:57;100099.31;;;-1.75;100.00
18678;BME280;9469;51.114;13.914;2023-02-28T22:17:05;100099.25;;;-1.81;100.00
18678;BME280;9469;51.114;13.914;2023-02-28T22:22:10;100108.41;;;-1.85;100.00
18678;BME280;9469;51.114;13.914;2023-02-28T22:27:14;100110.09;;;-1.78;100.00
18678;BME280;9469;51.114;13.914;2023-02-28T22:32:22;100108.53;;;-1.93;100.00
18678;BME280;9469;51.114;13.914;2023-02-28T22:37:28;100111.91;;;-1.99;100.00
18678;BME280;9469;51.114;13.914;2023-02-28T22:42:33;100107.28;;;-2.19;100.00
18678;BME280;9469;51.114;13.914;2023-02-28T22:47:40;100108.16;;;-2.11;100.00
18678;BME280;9469;51.114;13.914;2023-02-28T22:52:45;100112.34;;;-2.32;100.00
18678;BME280;9469;51.114;13.914;2023-02-28T22:57:50;100105.97;;;-2.29;100.00
18678;BME280;9469;51.114;13.914;2023-02-28T23:02:58;100111.66;;;-2.19;100.00
18678;BME280;9469;51.114;13.914;2023-02-28T23:08:04;100111.66;;;-2.19;100.00
18678;BME280;9469;51.114;13.914;2023-02-28T23:13:08;100115.34;;;-2.13;100.00
18678;BME280;9469;51.114;13.914;2023-02-28T23:18:16;100119.16;;;-2.31;100.00
18678;BME280;9469;51.114;13.914;2023-02-28T23:23:21;100119.28;;;-2.39;100.00
18678;BME280;9469;51.114;13.914;2023-02-28T23:28:26;100125.25;;;-2.24;100.00
18678;BME280;9469;51.114;13.914;2023-02-28T23:33:34;100125.84;;;-2.43;100.00
18678;BME280;9469;51.114;13.914;2023-02-28T23:38:41;100134.78;;;-2.31;100.00
18678;BME280;9469;51.114;13.914;2023-02-28T23:43:46;100134.63;;;-2.44;100.00
18678;BME280;9469;51.114;13.914;2023-02-28T23:48:54;100134.03;;;-2.60;100.00
18678;BME280;9469;51.114;13.914;2023-02-28T23:53:59;100121.66;;;-2.58;100.00
18678;BME280;9469;51.114;13.914;2023-02-28T23:59:06;100134.84;;;-2.74;100.00
